Shulerville, South Carolina
Current Conditions -  °F | °C
As of 12:15 PM on Saturday 22 Nov 2014 (Local Time) from KMKS Reporting Station
Clear Clear  
Wind Chill: 63°   Ceiling: Unl
Heat Index: 63°   Visibility: 7mi
Dew Point: 37°   Wind: 3mph
Humidity: 39%   Direction: 40°NE
Pressure: 30.47"   Gusts: NA
Location:  33.1964°N, 79.6934°W
Report Text: KMKS 221715Z AUTO 04003KT 7SM CLR 17/03 A3047 RMK AO2
Loading
Personal Weather Stations






























Interactive Weather Map New forecast layout! Learn more

10-Day Weather Forecast

Advertisements
Track Severe Weather on mobile